sensor_id;sensor_type;location;lat;lon;timestamp;temperature;humidity
674;DHT22;319;48.764;9.174;2024-01-15T00:01:43;1.80;96.10
674;DHT22;319;48.764;9.174;2024-01-15T00:04:10;1.80;96.00
674;DHT22;319;48.764;9.174;2024-01-15T00:06:37;1.90;96.10
674;DHT22;319;48.764;9.174;2024-01-15T00:09:04;2.00;96.00
674;DHT22;319;48.764;9.174;2024-01-15T00:11:35;2.00;95.90
674;DHT22;319;48.764;9.174;2024-01-15T00:14:05;2.00;95.80
674;DHT22;319;48.764;9.174;2024-01-15T00:16:32;1.90;95.80
674;DHT22;319;48.764;9.174;2024-01-15T00:19:00;1.80;95.80
674;DHT22;319;48.764;9.174;2024-01-15T00:21:27;1.80;95.90
674;DHT22;319;48.764;9.174;2024-01-15T00:23:55;1.70;95.90
674;DHT22;319;48.764;9.174;2024-01-15T00:26:21;1.60;96.10
674;DHT22;319;48.764;9.174;2024-01-15T00:28:48;1.50;96.30
674;DHT22;319;48.764;9.174;2024-01-15T00:31:16;1.50;96.50
674;DHT22;319;48.764;9.174;2024-01-15T00:33:43;1.40;96.70
674;DHT22;319;48.764;9.174;2024-01-15T00:36:11;1.40;96.80
674;DHT22;319;48.764;9.174;2024-01-15T00:38:40;1.40;97.00
674;DHT22;319;48.764;9.174;2024-01-15T00:41:06;1.30;97.10
674;DHT22;319;48.764;9.174;2024-01-15T00:43:33;1.30;97.30
674;DHT22;319;48.764;9.174;2024-01-15T00:46:01;1.30;97.40
674;DHT22;319;48.764;9.174;2024-01-15T00:48:28;1.20;97.40
674;DHT22;319;48.764;9.174;2024-01-15T00:50:55;1.20;97.60
674;DHT22;319;48.764;9.174;2024-01-15T00:53:23;1.10;97.70
674;DHT22;319;48.764;9.174;2024-01-15T00:55:50;1.10;97.90
674;DHT22;319;48.764;9.174;2024-01-15T00:58:17;1.10;98.00
674;DHT22;319;48.764;9.174;2024-01-15T01:00:43;1.10;98.20
674;DHT22;319;48.764;9.174;2024-01-15T01:03:10;1.20;98.30
674;DHT22;319;48.764;9.174;2024-01-15T01:05:37;1.20;98.30
674;DHT22;319;48.764;9.174;2024-01-15T01:08:04;1.20;98.30
674;DHT22;319;48.764;9.174;2024-01-15T01:10:32;1.30;98.40
674;DHT22;319;48.764;9.174;2024-01-15T01:12:59;1.30;98.40
674;DHT22;319;48.764;9.174;2024-01-15T01:15:26;1.40;98.40
674;DHT22;319;48.764;9.174;2024-01-15T01:17:53;1.30;98.30
674;DHT22;319;48.764;9.174;2024-01-15T01:20:20;1.40;98.30
674;DHT22;319;48.764;9.174;2024-01-15T01:22:46;1.40;98.30
674;DHT22;319;48.764;9.174;2024-01-15T01:25:13;1.50;98.30
674;DHT22;319;48.764;9.174;2024-01-15T01:27:41;1.50;98.20
674;DHT22;319;48.764;9.174;2024-01-15T01:30:09;1.50;98.20
674;DHT22;319;48.764;9.174;2024-01-15T01:32:35;1.60;98.30
674;DHT22;319;48.764;9.174;2024-01-15T01:35:03;1.60;98.20
674;DHT22;319;48.764;9.174;2024-01-15T01:37:30;1.70;98.30
674;DHT22;319;48.764;9.174;2024-01-15T01:39:56;1.70;98.20
674;DHT22;319;48.764;9.174;2024-01-15T01:42:23;1.80;98.20
674;DHT22;319;48.764;9.174;2024-01-15T01:44:51;1.80;98.00
674;DHT22;319;48.764;9.174;2024-01-15T01:47:18;1.80;98.00
674;DHT22;319;48.764;9.174;2024-01-15T01:49:45;1.80;98.00
674;DHT22;319;48.764;9.174;2024-01-15T01:52:13;1.80;98.00
674;DHT22;319;48.764;9.174;2024-01-15T01:54:40;1.80;97.90
674;DHT22;319;48.764;9.174;2024-01-15T01:57:08;1.90;98.00
674;DHT22;319;48.764;9.174;2024-01-15T01:59:35;2.00;97.90
674;DHT22;319;48.764;9.174;2024-01-15T02:02:05;2.00;97.80
674;DHT22;319;48.764;9.174;2024-01-15T02:04:32;2.00;97.80
674;DHT22;319;48.764;9.174;2024-01-15T02:07:00;2.00;97.70
674;DHT22;319;48.764;9.174;2024-01-15T02:09:28;2.00;97.80
674;DHT22;319;48.764;9.174;2024-01-15T02:11:55;2.10;98.10
674;DHT22;319;48.764;9.174;2024-01-15T02:14:22;2.10;97.80
674;DHT22;319;48.764;9.174;2024-01-15T02:16:48;2.10;97.80
674;DHT22;319;48.764;9.174;2024-01-15T02:19:17;2.10;97.80
674;DHT22;319;48.764;9.174;2024-01-15T02:21:44;2.10;97.70
674;DHT22;319;48.764;9.174;2024-01-15T02:24:23;2.10;97.80
674;DHT22;319;48.764;9.174;2024-01-15T02:26:50;2.10;98.00
674;DHT22;319;48.764;9.174;2024-01-15T02:29:17;2.00;97.80
674;DHT22;319;48.764;9.174;2024-01-15T02:31:44;1.80;97.80
674;DHT22;319;48.764;9.174;2024-01-15T02:34:11;1.80;98.00
674;DHT22;319;48.764;9.174;2024-01-15T02:36:37;1.80;98.20
674;DHT22;319;48.764;9.174;2024-01-15T02:39:04;1.70;98.20
674;DHT22;319;48.764;9.174;2024-01-15T02:41:32;1.70;98.30
674;DHT22;319;48.764;9.174;2024-01-15T02:43:59;1.70;98.40
674;DHT22;319;48.764;9.174;2024-01-15T02:46:26;1.80;98.60
674;DHT22;319;48.764;9.174;2024-01-15T02:48:52;1.70;98.50
674;DHT22;319;48.764;9.174;2024-01-15T02:51:19;1.60;98.50
674;DHT22;319;48.764;9.174;2024-01-15T02:53:46;1.60;98.60
674;DHT22;319;48.764;9.174;2024-01-15T02:56:13;1.60;98.70
674;DHT22;319;48.764;9.174;2024-01-15T02:58:41;1.60;98.80
674;DHT22;319;48.764;9.174;2024-01-15T03:01:07;1.50;98.80
674;DHT22;319;48.764;9.174;2024-01-15T03:03:34;1.50;98.90
674;DHT22;319;48.764;9.174;2024-01-15T03:06:01;1.50;98.90
674;DHT22;319;48.764;9.174;2024-01-15T03:08:28;1.50;99.00
674;DHT22;319;48.764;9.174;2024-01-15T03:10:55;1.50;99.10
674;DHT22;319;48.764;9.174;2024-01-15T03:13:22;1.50;99.00
674;DHT22;319;48.764;9.174;2024-01-15T03:15:50;1.40;99.00
674;DHT22;319;48.764;9.174;2024-01-15T03:18:17;1.50;99.20
674;DHT22;319;48.764;9.174;2024-01-15T03:20:43;1.40;99.20
674;DHT22;319;48.764;9.174;2024-01-15T03:23:10;1.40;99.30
674;DHT22;319;48.764;9.174;2024-01-15T03:25:37;1.40;99.30
674;DHT22;319;48.764;9.174;2024-01-15T03:28:04;1.40;99.40
674;DHT22;319;48.764;9.174;2024-01-15T03:30:31;1.40;99.50
674;DHT22;319;48.764;9.174;2024-01-15T03:32:59;1.40;99.50
674;DHT22;319;48.764;9.174;2024-01-15T03:35:26;1.40;99.50
674;DHT22;319;48.764;9.174;2024-01-15T03:37:54;1.40;99.50
674;DHT22;319;48.764;9.174;2024-01-15T03:40:21;1.50;99.60
674;DHT22;319;48.764;9.174;2024-01-15T03:42:48;1.50;99.40
674;DHT22;319;48.764;9.174;2024-01-15T03:45:15;1.50;99.40
674;DHT22;319;48.764;9.174;2024-01-15T03:47:42;1.50;99.40
674;DHT22;319;48.764;9.174;2024-01-15T03:50:10;1.50;99.40
674;DHT22;319;48.764;9.174;2024-01-15T03:52:37;1.50;99.40
674;DHT22;319;48.764;9.174;2024-01-15T03:55:05;1.50;99.40
674;DHT22;319;48.764;9.174;2024-01-15T03:57:31;1.50;99.40
674;DHT22;319;48.764;9.174;2024-01-15T03:59:58;1.60;99.40
674;DHT22;319;48.764;9.174;2024-01-15T04:02:25;1.60;99.30
674;DHT22;319;48.764;9.174;2024-01-15T04:04:52;1.60;99.30
674;DHT22;319;48.764;9.174;2024-01-15T04:07:20;1.70;99.30
674;DHT22;319;48.764;9.174;2024-01-15T04:09:47;1.80;99.30
674;DHT22;319;48.764;9.174;2024-01-15T04:12:13;1.80;99.00
674;DHT22;319;48.764;9.174;2024-01-15T04:14:40;1.90;98.90
674;DHT22;319;48.764;9.174;2024-01-15T04:17:07;2.00;98.70
674;DHT22;319;48.764;9.174;2024-01-15T04:19:33;2.10;98.90
674;DHT22;319;48.764;9.174;2024-01-15T04:22:00;2.20;98.40
674;DHT22;319;48.764;9.174;2024-01-15T04:24:28;2.10;98.20
674;DHT22;319;48.764;9.174;2024-01-15T04:26:57;2.20;98.20
674;DHT22;319;48.764;9.174;2024-01-15T04:29:24;2.20;98.10
674;DHT22;319;48.764;9.174;2024-01-15T04:31:52;2.30;98.10
674;DHT22;319;48.764;9.174;2024-01-15T04:34:19;2.30;98.10
674;DHT22;319;48.764;9.174;2024-01-15T04:36:46;2.40;98.10
674;DHT22;319;48.764;9.174;2024-01-15T04:39:13;2.40;97.90
674;DHT22;319;48.764;9.174;2024-01-15T04:41:41;2.40;97.90
674;DHT22;319;48.764;9.174;2024-01-15T04:44:08;2.40;98.00
674;DHT22;319;48.764;9.174;2024-01-15T04:46:34;2.30;98.10
674;DHT22;319;48.764;9.174;2024-01-15T04:49:01;2.30;98.10
674;DHT22;319;48.764;9.174;2024-01-15T04:51:28;2.30;98.10
674;DHT22;319;48.764;9.174;2024-01-15T04:53:55;2.30;98.10
674;DHT22;319;48.764;9.174;2024-01-15T04:56:22;2.40;98.10
674;DHT22;319;48.764;9.174;2024-01-15T04:58:50;2.40;98.00
674;DHT22;319;48.764;9.174;2024-01-15T05:01:17;2.30;98.10
674;DHT22;319;48.764;9.174;2024-01-15T05:03:43;2.40;98.10
674;DHT22;319;48.764;9.174;2024-01-15T05:06:10;2.40;98.10
674;DHT22;319;48.764;9.174;2024-01-15T05:08:37;2.30;98.20
674;DHT22;319;48.764;9.174;2024-01-15T05:11:04;2.30;98.30
674;DHT22;319;48.764;9.174;2024-01-15T05:13:31;2.30;98.30
674;DHT22;319;48.764;9.174;2024-01-15T05:15:59;2.30;98.40
674;DHT22;319;48.764;9.174;2024-01-15T05:18:26;2.40;98.90
674;DHT22;319;48.764;9.174;2024-01-15T05:20:52;2.40;98.60
674;DHT22;319;48.764;9.174;2024-01-15T05:23:19;2.40;98.80
674;DHT22;319;48.764;9.174;2024-01-15T05:25:46;2.40;98.80
674;DHT22;319;48.764;9.174;2024-01-15T05:28:13;2.40;98.80
674;DHT22;319;48.764;9.174;2024-01-15T05:30:40;2.40;98.70
674;DHT22;319;48.764;9.174;2024-01-15T05:33:08;2.40;98.70
674;DHT22;319;48.764;9.174;2024-01-15T05:35:35;2.40;98.80
674;DHT22;319;48.764;9.174;2024-01-15T05:38:02;2.30;98.70
674;DHT22;319;48.764;9.174;2024-01-15T05:40:29;2.40;98.90
674;DHT22;319;48.764;9.174;2024-01-15T05:42:56;2.30;98.90
674;DHT22;319;48.764;9.174;2024-01-15T05:45:23;2.30;98.90
674;DHT22;319;48.764;9.174;2024-01-15T05:47:50;2.30;98.90
674;DHT22;319;48.764;9.174;2024-01-15T05:50:18;2.40;98.80
674;DHT22;319;48.764;9.174;2024-01-15T05:52:45;2.40;98.80
674;DHT22;319;48.764;9.174;2024-01-15T05:55:12;3.80;99.70
674;DHT22;319;48.764;9.174;2024-01-15T05:57:38;2.50;98.60
674;DHT22;319;48.764;9.174;2024-01-15T06:00:06;2.50;98.60
674;DHT22;319;48.764;9.174;2024-01-15T06:02:34;2.50;98.40
674;DHT22;319;48.764;9.174;2024-01-15T06:05:01;2.40;98.40
674;DHT22;319;48.764;9.174;2024-01-15T06:07:29;2.50;98.50
674;DHT22;319;48.764;9.174;2024-01-15T06:09:56;2.40;98.20
674;DHT22;319;48.764;9.174;2024-01-15T06:12:23;2.50;98.20
674;DHT22;319;48.764;9.174;2024-01-15T06:14:50;2.50;98.30
674;DHT22;319;48.764;9.174;2024-01-15T06:17:17;2.60;98.20
674;DHT22;319;48.764;9.174;2024-01-15T06:19:44;2.60;98.10
674;DHT22;319;48.764;9.174;2024-01-15T06:22:11;2.60;98.40
674;DHT22;319;48.764;9.174;2024-01-15T06:24:39;2.60;98.00
674;DHT22;319;48.764;9.174;2024-01-15T06:27:06;2.60;98.00
674;DHT22;319;48.764;9.174;2024-01-15T06:29:32;2.60;97.90
674;DHT22;319;48.764;9.174;2024-01-15T06:31:59;2.70;97.90
674;DHT22;319;48.764;9.174;2024-01-15T06:34:26;2.60;97.70
674;DHT22;319;48.764;9.174;2024-01-15T06:36:53;2.60;97.80
674;DHT22;319;48.764;9.174;2024-01-15T06:39:20;2.60;98.00
674;DHT22;319;48.764;9.174;2024-01-15T06:41:48;2.60;98.00
674;DHT22;319;48.764;9.174;2024-01-15T06:44:15;2.60;98.00
674;DHT22;319;48.764;9.174;2024-01-15T06:46:42;2.60;98.10
674;DHT22;319;48.764;9.174;2024-01-15T06:49:09;2.60;98.10
674;DHT22;319;48.764;9.174;2024-01-15T06:51:36;2.50;98.20
674;DHT22;319;48.764;9.174;2024-01-15T06:54:03;2.60;98.40
674;DHT22;319;48.764;9.174;2024-01-15T06:56:31;2.60;98.20
674;DHT22;319;48.764;9.174;2024-01-15T06:58:59;2.60;98.10
674;DHT22;319;48.764;9.174;2024-01-15T07:01:26;2.60;98.10
674;DHT22;319;48.764;9.174;2024-01-15T07:03:52;2.70;98.10
674;DHT22;319;48.764;9.174;2024-01-15T07:06:19;3.00;98.10
674;DHT22;319;48.764;9.174;2024-01-15T07:08:46;2.70;97.80
674;DHT22;319;48.764;9.174;2024-01-15T07:11:13;2.60;97.70
674;DHT22;319;48.764;9.174;2024-01-15T07:13:39;2.60;97.60
674;DHT22;319;48.764;9.174;2024-01-15T07:16:07;2.70;97.60
674;DHT22;319;48.764;9.174;2024-01-15T07:18:34;2.50;97.30
674;DHT22;319;48.764;9.174;2024-01-15T07:21:01;2.60;97.40
674;DHT22;319;48.764;9.174;2024-01-15T07:23:28;2.60;97.40
674;DHT22;319;48.764;9.174;2024-01-15T07:25:55;2.60;97.40
674;DHT22;319;48.764;9.174;2024-01-15T07:28:21;2.60;97.40
674;DHT22;319;48.764;9.174;2024-01-15T07:30:48;3.30;97.80
674;DHT22;319;48.764;9.174;2024-01-15T07:33:16;2.70;97.40
674;DHT22;319;48.764;9.174;2024-01-15T07:35:45;2.50;97.20
674;DHT22;319;48.764;9.174;2024-01-15T07:38:42;2.70;97.20
674;DHT22;319;48.764;9.174;2024-01-15T07:41:10;4.50;99.90
674;DHT22;319;48.764;9.174;2024-01-15T07:43:40;3.50;99.80
674;DHT22;319;48.764;9.174;2024-01-15T07:46:07;2.20;99.50
674;DHT22;319;48.764;9.174;2024-01-15T07:48:36;5.00;99.90
674;DHT22;319;48.764;9.174;2024-01-15T07:51:04;2.40;99.80
674;DHT22;319;48.764;9.174;2024-01-15T07:53:31;2.90;97.70
674;DHT22;319;48.764;9.174;2024-01-15T07:55:58;5.20;99.10
674;DHT22;319;48.764;9.174;2024-01-15T07:58:24;3.40;98.40
674;DHT22;319;48.764;9.174;2024-01-15T08:00:51;2.70;96.40
674;DHT22;319;48.764;9.174;2024-01-15T08:03:18;2.70;96.20
674;DHT22;319;48.764;9.174;2024-01-15T08:09:26;2.90;98.40
674;DHT22;319;48.764;9.174;2024-01-15T08:11:52;3.10;96.70
674;DHT22;319;48.764;9.174;2024-01-15T08:14:19;2.80;97.00
674;DHT22;319;48.764;9.174;2024-01-15T08:16:46;3.00;96.70
674;DHT22;319;48.764;9.174;2024-01-15T08:19:13;2.70;96.10
674;DHT22;319;48.764;9.174;2024-01-15T08:21:41;2.90;96.10
674;DHT22;319;48.764;9.174;2024-01-15T08:26:36;2.90;95.70
674;DHT22;319;48.764;9.174;2024-01-15T08:29:03;2.90;96.60
674;DHT22;319;48.764;9.174;2024-01-15T08:31:30;3.00;95.80
674;DHT22;319;48.764;9.174;2024-01-15T08:33:58;3.10;95.40
674;DHT22;319;48.764;9.174;2024-01-15T08:36:27;3.10;95.20
674;DHT22;319;48.764;9.174;2024-01-15T08:38:56;3.20;95.20
674;DHT22;319;48.764;9.174;2024-01-15T08:41:23;3.30;95.10
674;DHT22;319;48.764;9.174;2024-01-15T08:43:59;3.30;95.10
674;DHT22;319;48.764;9.174;2024-01-15T08:46:29;3.40;95.30
674;DHT22;319;48.764;9.174;2024-01-15T08:48:56;3.50;95.00
674;DHT22;319;48.764;9.174;2024-01-15T08:51:23;3.50;94.70
674;DHT22;319;48.764;9.174;2024-01-15T08:53:50;3.50;94.90
674;DHT22;319;48.764;9.174;2024-01-15T08:56:18;3.50;94.70
674;DHT22;319;48.764;9.174;2024-01-15T08:58:45;3.60;94.90
674;DHT22;319;48.764;9.174;2024-01-15T09:01:11;3.60;94.60
674;DHT22;319;48.764;9.174;2024-01-15T09:03:43;3.80;94.60
674;DHT22;319;48.764;9.174;2024-01-15T09:06:17;3.90;93.90
674;DHT22;319;48.764;9.174;2024-01-15T09:08:44;3.90;93.30
674;DHT22;319;48.764;9.174;2024-01-15T09:11:11;4.00;93.70
674;DHT22;319;48.764;9.174;2024-01-15T09:13:39;4.10;94.10
674;DHT22;319;48.764;9.174;2024-01-15T09:16:07;4.00;93.80
674;DHT22;319;48.764;9.174;2024-01-15T09:18:34;4.10;93.50
674;DHT22;319;48.764;9.174;2024-01-15T09:21:03;4.50;93.20
674;DHT22;319;48.764;9.174;2024-01-15T09:23:29;4.00;93.00
674;DHT22;319;48.764;9.174;2024-01-15T09:25:56;4.00;92.90
674;DHT22;319;48.764;9.174;2024-01-15T09:28:23;4.10;93.20
674;DHT22;319;48.764;9.174;2024-01-15T09:30:51;4.10;92.80
674;DHT22;319;48.764;9.174;2024-01-15T09:33:17;4.10;92.90
674;DHT22;319;48.764;9.174;2024-01-15T09:35:48;4.00;92.70
674;DHT22;319;48.764;9.174;2024-01-15T09:38:24;4.10;92.40
674;DHT22;319;48.764;9.174;2024-01-15T09:41:01;4.10;92.30
674;DHT22;319;48.764;9.174;2024-01-15T09:43:28;4.20;93.40
674;DHT22;319;48.764;9.174;2024-01-15T09:45:59;4.30;92.70
674;DHT22;319;48.764;9.174;2024-01-15T09:48:29;4.30;93.10
674;DHT22;319;48.764;9.174;2024-01-15T09:51:01;4.40;92.10
674;DHT22;319;48.764;9.174;2024-01-15T09:53:34;4.30;92.50
674;DHT22;319;48.764;9.174;2024-01-15T09:56:05;4.40;92.20
674;DHT22;319;48.764;9.174;2024-01-15T09:58:32;4.50;93.20
674;DHT22;319;48.764;9.174;2024-01-15T10:01:02;4.50;92.30
674;DHT22;319;48.764;9.174;2024-01-15T10:03:30;4.50;93.00
674;DHT22;319;48.764;9.174;2024-01-15T10:05:59;4.70;92.70
674;DHT22;319;48.764;9.174;2024-01-15T10:08:26;4.50;92.40
674;DHT22;319;48.764;9.174;2024-01-15T10:10:53;4.50;92.00
674;DHT22;319;48.764;9.174;2024-01-15T10:13:21;4.60;92.10
674;DHT22;319;48.764;9.174;2024-01-15T10:15:48;4.60;91.90
674;DHT22;319;48.764;9.174;2024-01-15T10:18:20;4.60;91.70
674;DHT22;319;48.764;9.174;2024-01-15T10:20:47;4.50;91.90
674;DHT22;319;48.764;9.174;2024-01-15T10:23:14;4.50;91.80
674;DHT22;319;48.764;9.174;2024-01-15T10:25:41;4.40;91.90
674;DHT22;319;48.764;9.174;2024-01-15T10:28:08;4.40;92.10
674;DHT22;319;48.764;9.174;2024-01-15T10:30:35;4.50;92.20
674;DHT22;319;48.764;9.174;2024-01-15T10:33:03;4.50;92.00
674;DHT22;319;48.764;9.174;2024-01-15T10:35:33;4.50;92.00
674;DHT22;319;48.764;9.174;2024-01-15T10:38:00;4.60;92.00
674;DHT22;319;48.764;9.174;2024-01-15T10:40:28;4.60;91.90
674;DHT22;319;48.764;9.174;2024-01-15T10:42:55;4.60;92.00
674;DHT22;319;48.764;9.174;2024-01-15T10:45:22;4.60;92.00
674;DHT22;319;48.764;9.174;2024-01-15T10:47:49;4.50;91.90
674;DHT22;319;48.764;9.174;2024-01-15T10:50:15;4.50;91.90
674;DHT22;319;48.764;9.174;2024-01-15T10:52:43;4.60;92.00
674;DHT22;319;48.764;9.174;2024-01-15T10:55:11;4.60;92.10
674;DHT22;319;48.764;9.174;2024-01-15T10:57:38;4.60;92.10
674;DHT22;319;48.764;9.174;2024-01-15T11:00:06;4.60;92.10
674;DHT22;319;48.764;9.174;2024-01-15T11:02:35;4.60;92.10
674;DHT22;319;48.764;9.174;2024-01-15T11:05:03;4.60;92.10
674;DHT22;319;48.764;9.174;2024-01-15T11:07:31;4.70;92.10
674;DHT22;319;48.764;9.174;2024-01-15T11:09:59;4.70;92.00
674;DHT22;319;48.764;9.174;2024-01-15T11:12:26;4.80;92.10
674;DHT22;319;48.764;9.174;2024-01-15T11:15:01;4.90;92.20
674;DHT22;319;48.764;9.174;2024-01-15T11:17:58;4.80;92.20
674;DHT22;319;48.764;9.174;2024-01-15T11:20:25;4.80;92.60
674;DHT22;319;48.764;9.174;2024-01-15T11:22:52;4.80;93.40
674;DHT22;319;48.764;9.174;2024-01-15T11:25:20;4.80;93.90
674;DHT22;319;48.764;9.174;2024-01-15T11:27:48;4.70;94.20
674;DHT22;319;48.764;9.174;2024-01-15T11:30:16;4.70;94.90
674;DHT22;319;48.764;9.174;2024-01-15T11:32:45;4.80;96.00
674;DHT22;319;48.764;9.174;2024-01-15T11:35:13;4.80;96.30
674;DHT22;319;48.764;9.174;2024-01-15T11:37:58;5.00;96.30
674;DHT22;319;48.764;9.174;2024-01-15T11:40:41;4.60;96.40
674;DHT22;319;48.764;9.174;2024-01-15T11:43:10;4.50;97.20
674;DHT22;319;48.764;9.174;2024-01-15T11:45:39;4.50;96.80
674;DHT22;319;48.764;9.174;2024-01-15T11:48:10;4.40;97.20
674;DHT22;319;48.764;9.174;2024-01-15T11:50:40;4.30;98.10
674;DHT22;319;48.764;9.174;2024-01-15T11:53:17;4.30;99.00
674;DHT22;319;48.764;9.174;2024-01-15T11:55:45;4.20;99.00
674;DHT22;319;48.764;9.174;2024-01-15T11:58:14;3.90;98.60
674;DHT22;319;48.764;9.174;2024-01-15T12:00:43;3.90;99.00
674;DHT22;319;48.764;9.174;2024-01-15T12:03:10;3.90;97.40
674;DHT22;319;48.764;9.174;2024-01-15T12:05:37;3.80;97.60
674;DHT22;319;48.764;9.174;2024-01-15T12:08:04;3.90;97.70
674;DHT22;319;48.764;9.174;2024-01-15T12:10:36;3.80;97.70
674;DHT22;319;48.764;9.174;2024-01-15T12:13:10;3.90;97.90
674;DHT22;319;48.764;9.174;2024-01-15T12:15:37;4.30;99.80
674;DHT22;319;48.764;9.174;2024-01-15T12:18:08;3.80;99.60
674;DHT22;319;48.764;9.174;2024-01-15T12:20:35;3.70;99.10
674;DHT22;319;48.764;9.174;2024-01-15T12:23:02;3.70;99.60
674;DHT22;319;48.764;9.174;2024-01-15T12:25:30;3.60;99.90
674;DHT22;319;48.764;9.174;2024-01-15T12:27:58;3.60;99.90
674;DHT22;319;48.764;9.174;2024-01-15T12:30:28;3.60;99.90
674;DHT22;319;48.764;9.174;2024-01-15T12:32:57;3.60;99.90
674;DHT22;319;48.764;9.174;2024-01-15T12:35:24;3.50;99.90
674;DHT22;319;48.764;9.174;2024-01-15T12:37:51;3.60;99.90
674;DHT22;319;48.764;9.174;2024-01-15T12:40:19;3.40;99.90
674;DHT22;319;48.764;9.174;2024-01-15T12:42:46;3.30;99.90
674;DHT22;319;48.764;9.174;2024-01-15T12:45:13;3.30;99.90
674;DHT22;319;48.764;9.174;2024-01-15T12:47:42;3.20;99.90
674;DHT22;319;48.764;9.174;2024-01-15T12:50:09;3.20;99.90
674;DHT22;319;48.764;9.174;2024-01-15T12:52:36;3.10;99.90
674;DHT22;319;48.764;9.174;2024-01-15T12:55:05;3.10;99.90
674;DHT22;319;48.764;9.174;2024-01-15T12:57:32;3.10;99.90
674;DHT22;319;48.764;9.174;2024-01-15T12:59:59;3.00;99.90
674;DHT22;319;48.764;9.174;2024-01-15T13:02:26;3.00;99.90
674;DHT22;319;48.764;9.174;2024-01-15T13:04:54;3.10;99.90
674;DHT22;319;48.764;9.174;2024-01-15T13:07:22;3.00;99.90
674;DHT22;319;48.764;9.174;2024-01-15T13:09:48;3.10;99.90
674;DHT22;319;48.764;9.174;2024-01-15T13:12:19;3.20;99.90
674;DHT22;319;48.764;9.174;2024-01-15T13:14:46;3.30;99.90
674;DHT22;319;48.764;9.174;2024-01-15T13:17:13;3.40;99.90
674;DHT22;319;48.764;9.174;2024-01-15T13:19:40;3.30;99.90
674;DHT22;319;48.764;9.174;2024-01-15T13:22:08;3.30;99.90
674;DHT22;319;48.764;9.174;2024-01-15T13:24:35;3.30;99.90
674;DHT22;319;48.764;9.174;2024-01-15T13:27:02;3.30;99.90
674;DHT22;319;48.764;9.174;2024-01-15T13:29:30;3.30;99.90
674;DHT22;319;48.764;9.174;2024-01-15T13:31:56;3.30;99.90
674;DHT22;319;48.764;9.174;2024-01-15T13:34:23;3.40;99.90
674;DHT22;319;48.764;9.174;2024-01-15T13:36:50;3.40;99.90
674;DHT22;319;48.764;9.174;2024-01-15T13:39:20;3.40;99.90
674;DHT22;319;48.764;9.174;2024-01-15T13:41:47;3.40;99.90
674;DHT22;319;48.764;9.174;2024-01-15T13:44:13;3.40;99.90
674;DHT22;319;48.764;9.174;2024-01-15T13:46:40;3.40;99.90
674;DHT22;319;48.764;9.174;2024-01-15T13:49:07;3.40;99.90
674;DHT22;319;48.764;9.174;2024-01-15T13:51:35;3.50;99.90
674;DHT22;319;48.764;9.174;2024-01-15T13:54:02;3.50;99.90
674;DHT22;319;48.764;9.174;2024-01-15T13:56:31;3.50;99.90
674;DHT22;319;48.764;9.174;2024-01-15T13:59:00;3.50;99.90
674;DHT22;319;48.764;9.174;2024-01-15T14:01:29;3.50;99.90
674;DHT22;319;48.764;9.174;2024-01-15T14:03:56;3.40;99.90
674;DHT22;319;48.764;9.174;2024-01-15T14:06:24;3.50;99.90
674;DHT22;319;48.764;9.174;2024-01-15T14:08:50;3.50;99.90
674;DHT22;319;48.764;9.174;2024-01-15T14:11:17;3.50;99.90
674;DHT22;319;48.764;9.174;2024-01-15T14:13:45;3.50;99.90
674;DHT22;319;48.764;9.174;2024-01-15T14:16:12;3.50;99.90
674;DHT22;319;48.764;9.174;2024-01-15T14:18:39;3.50;99.90
674;DHT22;319;48.764;9.174;2024-01-15T14:21:06;3.50;99.90
674;DHT22;319;48.764;9.174;2024-01-15T14:23:33;3.50;99.90
674;DHT22;319;48.764;9.174;2024-01-15T14:25:59;3.50;99.90
674;DHT22;319;48.764;9.174;2024-01-15T14:28:26;3.60;99.90
674;DHT22;319;48.764;9.174;2024-01-15T14:30:54;3.60;99.90
674;DHT22;319;48.764;9.174;2024-01-15T14:33:23;3.60;99.90
674;DHT22;319;48.764;9.174;2024-01-15T14:35:50;3.50;99.90
674;DHT22;319;48.764;9.174;2024-01-15T14:38:17;3.30;99.90
674;DHT22;319;48.764;9.174;2024-01-15T14:40:43;3.30;99.90
674;DHT22;319;48.764;9.174;2024-01-15T14:43:10;3.30;99.90
674;DHT22;319;48.764;9.174;2024-01-15T14:45:37;3.20;99.90
674;DHT22;319;48.764;9.174;2024-01-15T14:48:05;3.20;99.90
674;DHT22;319;48.764;9.174;2024-01-15T14:50:32;3.10;99.90
674;DHT22;319;48.764;9.174;2024-01-15T14:52:59;3.20;99.90
674;DHT22;319;48.764;9.174;2024-01-15T14:55:26;3.20;99.90
674;DHT22;319;48.764;9.174;2024-01-15T14:57:52;3.20;99.90
674;DHT22;319;48.764;9.174;2024-01-15T15:00:20;3.30;99.90
674;DHT22;319;48.764;9.174;2024-01-15T15:02:46;3.30;99.90
674;DHT22;319;48.764;9.174;2024-01-15T15:05:15;3.20;99.90
674;DHT22;319;48.764;9.174;2024-01-15T15:07:42;3.10;99.90
674;DHT22;319;48.764;9.174;2024-01-15T15:10:09;3.00;99.90
674;DHT22;319;48.764;9.174;2024-01-15T15:12:37;3.10;99.90
674;DHT22;319;48.764;9.174;2024-01-15T15:15:05;3.10;99.90
674;DHT22;319;48.764;9.174;2024-01-15T15:17:32;3.10;99.90
674;DHT22;319;48.764;9.174;2024-01-15T15:20:00;3.10;99.90
674;DHT22;319;48.764;9.174;2024-01-15T15:22:29;3.10;99.90
674;DHT22;319;48.764;9.174;2024-01-15T15:24:56;3.00;99.90
674;DHT22;319;48.764;9.174;2024-01-15T15:27:23;3.20;99.90
674;DHT22;319;48.764;9.174;2024-01-15T15:29:50;3.10;99.90
674;DHT22;319;48.764;9.174;2024-01-15T15:32:17;3.20;99.90
674;DHT22;319;48.764;9.174;2024-01-15T15:34:43;3.20;99.90
674;DHT22;319;48.764;9.174;2024-01-15T15:37:10;3.20;99.90
674;DHT22;319;48.764;9.174;2024-01-15T15:39:39;3.10;99.90
674;DHT22;319;48.764;9.174;2024-01-15T15:42:05;3.50;99.90
674;DHT22;319;48.764;9.174;2024-01-15T15:44:32;3.10;99.90
674;DHT22;319;48.764;9.174;2024-01-15T15:46:58;3.10;99.90
674;DHT22;319;48.764;9.174;2024-01-15T15:49:25;3.00;99.90
674;DHT22;319;48.764;9.174;2024-01-15T15:51:51;3.00;99.90
674;DHT22;319;48.764;9.174;2024-01-15T15:54:18;3.00;99.90
674;DHT22;319;48.764;9.174;2024-01-15T15:56:46;3.00;99.90
674;DHT22;319;48.764;9.174;2024-01-15T15:59:15;3.00;99.90
674;DHT22;319;48.764;9.174;2024-01-15T16:01:44;3.00;99.90
674;DHT22;319;48.764;9.174;2024-01-15T16:04:11;3.00;99.90
674;DHT22;319;48.764;9.174;2024-01-15T16:06:40;3.00;99.90
674;DHT22;319;48.764;9.174;2024-01-15T16:09:07;3.00;99.90
674;DHT22;319;48.764;9.174;2024-01-15T16:11:36;3.10;99.90
674;DHT22;319;48.764;9.174;2024-01-15T16:14:04;3.00;99.90
674;DHT22;319;48.764;9.174;2024-01-15T16:16:31;3.00;99.90
674;DHT22;319;48.764;9.174;2024-01-15T16:18:58;3.10;99.90
674;DHT22;319;48.764;9.174;2024-01-15T16:21:24;3.10;99.90
674;DHT22;319;48.764;9.174;2024-01-15T16:23:52;3.00;99.90
674;DHT22;319;48.764;9.174;2024-01-15T16:26:19;3.00;99.90
674;DHT22;319;48.764;9.174;2024-01-15T16:28:46;3.00;99.90
674;DHT22;319;48.764;9.174;2024-01-15T16:31:14;3.00;99.90
674;DHT22;319;48.764;9.174;2024-01-15T16:33:41;3.00;99.90
674;DHT22;319;48.764;9.174;2024-01-15T16:36:08;3.00;99.90
674;DHT22;319;48.764;9.174;2024-01-15T16:38:36;2.90;99.90
674;DHT22;319;48.764;9.174;2024-01-15T16:41:02;2.90;99.90
674;DHT22;319;48.764;9.174;2024-01-15T16:43:32;2.90;99.90
674;DHT22;319;48.764;9.174;2024-01-15T16:46:00;2.90;99.90
674;DHT22;319;48.764;9.174;2024-01-15T16:48:29;2.90;99.90
674;DHT22;319;48.764;9.174;2024-01-15T16:50:56;2.90;99.90
674;DHT22;319;48.764;9.174;2024-01-15T16:53:23;2.90;99.90
674;DHT22;319;48.764;9.174;2024-01-15T16:55:50;2.90;99.90
674;DHT22;319;48.764;9.174;2024-01-15T16:58:16;2.90;99.90
674;DHT22;319;48.764;9.174;2024-01-15T17:00:45;2.90;99.90